LSZB/BRN METAR and TAF weather

Enter ICAO airport designator
Station Type Date Time Source
LSZB METAR 2022/06/28 23:50 UTC NOAA

LSZB 282350Z AUTO 08005KT 9999 FEW045 16/15 Q1017


Station Type Date Time Source
LSZB Decoded METAR 2022/06/28 23:50 UTC NOAA

Bern / Belp , Switzerland (LSZB) 46-55N 007-30E
Jun 28, 2022 - 07:50 PM EDT / 2022.06.28 2350 UTC
Wind: from the E (080 degrees) at 6 MPH (5 KT):0
Visibility: greater than 7 mile(s):0
Sky conditions: mostly clear
Temperature: 60 F (16 C)
Dew Point: 59 F (15 C)
Relative Humidity: 93%
Pressure (altimeter): 30.03 in. Hg (1017 hPa)
ob: LSZB 282350Z AUTO 08005KT 9999 FEW045 16/15 Q1017
cycle: 0

Station Type Date Time Source
LSZB TAF 2014/12/22 20:03 UTC NOAA

TAF
AMD TAF
AMD LSZB 222054Z 2220/2224 CNL

Example: see airport list